sensor_id;sensor_type;location;lat;lon;timestamp;temperature;humidity
7876;DHT22;69649;53.712;9.680;2024-02-14T00:02:18;5.40;72.20
7876;DHT22;69649;53.712;9.680;2024-02-14T00:04:44;5.30;72.50
7876;DHT22;69649;53.712;9.680;2024-02-14T00:07:10;5.30;72.20
7876;DHT22;69649;53.712;9.680;2024-02-14T00:09:36;5.30;72.00
7876;DHT22;69649;53.712;9.680;2024-02-14T00:12:02;5.30;72.20
7876;DHT22;69649;53.712;9.680;2024-02-14T00:14:28;5.30;72.20
7876;DHT22;69649;53.712;9.680;2024-02-14T00:16:54;5.30;72.30
7876;DHT22;69649;53.712;9.680;2024-02-14T00:19:20;5.30;72.30
7876;DHT22;69649;53.712;9.680;2024-02-14T00:21:46;5.30;72.20
7876;DHT22;69649;53.712;9.680;2024-02-14T00:24:12;5.30;72.40
7876;DHT22;69649;53.712;9.680;2024-02-14T00:26:37;5.20;72.30
7876;DHT22;69649;53.712;9.680;2024-02-14T00:29:04;5.20;72.30
7876;DHT22;69649;53.712;9.680;2024-02-14T00:31:30;5.20;72.10
7876;DHT22;69649;53.712;9.680;2024-02-14T00:33:56;5.30;72.20
7876;DHT22;69649;53.712;9.680;2024-02-14T00:36:22;5.30;72.10
7876;DHT22;69649;53.712;9.680;2024-02-14T00:38:47;5.30;72.10
7876;DHT22;69649;53.712;9.680;2024-02-14T00:41:13;5.30;71.90
7876;DHT22;69649;53.712;9.680;2024-02-14T00:43:39;5.30;72.10
7876;DHT22;69649;53.712;9.680;2024-02-14T00:46:05;5.30;71.90
7876;DHT22;69649;53.712;9.680;2024-02-14T00:48:32;5.30;71.70
7876;DHT22;69649;53.712;9.680;2024-02-14T00:50:57;5.30;71.70
7876;DHT22;69649;53.712;9.680;2024-02-14T00:53:25;5.30;71.70
7876;DHT22;69649;53.712;9.680;2024-02-14T00:55:51;5.30;71.70
7876;DHT22;69649;53.712;9.680;2024-02-14T00:58:17;5.30;71.70
7876;DHT22;69649;53.712;9.680;2024-02-14T01:00:42;5.30;71.80
7876;DHT22;69649;53.712;9.680;2024-02-14T01:03:09;5.50;71.80
7876;DHT22;69649;53.712;9.680;2024-02-14T01:05:36;5.50;71.70
7876;DHT22;69649;53.712;9.680;2024-02-14T01:08:02;5.40;72.10
7876;DHT22;69649;53.712;9.680;2024-02-14T01:10:28;5.50;72.60
7876;DHT22;69649;53.712;9.680;2024-02-14T01:12:54;5.50;72.70
7876;DHT22;69649;53.712;9.680;2024-02-14T01:15:20;5.40;73.00
7876;DHT22;69649;53.712;9.680;2024-02-14T01:17:47;5.30;73.60
7876;DHT22;69649;53.712;9.680;2024-02-14T01:20:13;5.30;74.00
7876;DHT22;69649;53.712;9.680;2024-02-14T01:22:38;5.30;74.90
7876;DHT22;69649;53.712;9.680;2024-02-14T01:25:05;5.30;75.50
7876;DHT22;69649;53.712;9.680;2024-02-14T01:27:31;5.20;75.70
7876;DHT22;69649;53.712;9.680;2024-02-14T01:29:57;5.10;76.20
7876;DHT22;69649;53.712;9.680;2024-02-14T01:32:23;5.20;76.50
7876;DHT22;69649;53.712;9.680;2024-02-14T01:34:49;5.10;76.70
7876;DHT22;69649;53.712;9.680;2024-02-14T01:37:15;5.10;77.50
7876;DHT22;69649;53.712;9.680;2024-02-14T01:39:41;5.10;77.90
7876;DHT22;69649;53.712;9.680;2024-02-14T01:42:06;5.00;78.20
7876;DHT22;69649;53.712;9.680;2024-02-14T01:44:33;4.90;78.70
7876;DHT22;69649;53.712;9.680;2024-02-14T01:47:00;4.90;79.20
7876;DHT22;69649;53.712;9.680;2024-02-14T01:49:26;4.70;79.50
7876;DHT22;69649;53.712;9.680;2024-02-14T01:51:58;4.70;79.70
7876;DHT22;69649;53.712;9.680;2024-02-14T01:54:25;4.70;80.00
7876;DHT22;69649;53.712;9.680;2024-02-14T01:56:52;4.70;80.30
7876;DHT22;69649;53.712;9.680;2024-02-14T01:59:18;4.70;80.50
7876;DHT22;69649;53.712;9.680;2024-02-14T02:01:45;4.70;80.70
7876;DHT22;69649;53.712;9.680;2024-02-14T02:04:12;4.70;80.90
7876;DHT22;69649;53.712;9.680;2024-02-14T02:06:38;4.70;81.10
7876;DHT22;69649;53.712;9.680;2024-02-14T02:09:06;4.60;81.30
7876;DHT22;69649;53.712;9.680;2024-02-14T02:11:51;4.50;81.60
7876;DHT22;69649;53.712;9.680;2024-02-14T02:14:19;4.50;81.80
7876;DHT22;69649;53.712;9.680;2024-02-14T02:16:47;4.50;82.10
7876;DHT22;69649;53.712;9.680;2024-02-14T02:19:12;4.50;82.20
7876;DHT22;69649;53.712;9.680;2024-02-14T02:21:39;4.60;82.40
7876;DHT22;69649;53.712;9.680;2024-02-14T02:24:05;4.60;82.50
7876;DHT22;69649;53.712;9.680;2024-02-14T02:26:31;4.70;82.50
7876;DHT22;69649;53.712;9.680;2024-02-14T02:28:56;4.70;82.50
7876;DHT22;69649;53.712;9.680;2024-02-14T02:31:22;4.70;82.60
7876;DHT22;69649;53.712;9.680;2024-02-14T02:33:48;4.70;82.60
7876;DHT22;69649;53.712;9.680;2024-02-14T02:36:15;4.70;82.60
7876;DHT22;69649;53.712;9.680;2024-02-14T02:38:41;4.80;82.60
7876;DHT22;69649;53.712;9.680;2024-02-14T02:41:07;4.90;82.30
7876;DHT22;69649;53.712;9.680;2024-02-14T02:43:34;4.70;82.50
7876;DHT22;69649;53.712;9.680;2024-02-14T02:46:01;4.80;82.60
7876;DHT22;69649;53.712;9.680;2024-02-14T02:48:27;4.80;82.60
7876;DHT22;69649;53.712;9.680;2024-02-14T02:50:53;4.80;82.70
7876;DHT22;69649;53.712;9.680;2024-02-14T02:53:19;4.70;82.80
7876;DHT22;69649;53.712;9.680;2024-02-14T02:55:45;4.80;82.90
7876;DHT22;69649;53.712;9.680;2024-02-14T02:58:11;4.80;82.90
7876;DHT22;69649;53.712;9.680;2024-02-14T03:00:37;4.70;83.00
7876;DHT22;69649;53.712;9.680;2024-02-14T03:03:03;4.70;83.00
7876;DHT22;69649;53.712;9.680;2024-02-14T03:05:31;4.70;83.20
7876;DHT22;69649;53.712;9.680;2024-02-14T03:07:59;4.70;83.20
7876;DHT22;69649;53.712;9.680;2024-02-14T03:10:25;4.70;83.30
7876;DHT22;69649;53.712;9.680;2024-02-14T03:12:51;4.70;83.30
7876;DHT22;69649;53.712;9.680;2024-02-14T03:15:18;4.70;83.30
7876;DHT22;69649;53.712;9.680;2024-02-14T03:17:45;4.80;83.20
7876;DHT22;69649;53.712;9.680;2024-02-14T03:20:12;4.70;83.10
7876;DHT22;69649;53.712;9.680;2024-02-14T03:22:39;4.90;83.10
7876;DHT22;69649;53.712;9.680;2024-02-14T03:25:07;5.00;83.00
7876;DHT22;69649;53.712;9.680;2024-02-14T03:27:33;4.90;82.70
7876;DHT22;69649;53.712;9.680;2024-02-14T03:30:00;4.90;82.70
7876;DHT22;69649;53.712;9.680;2024-02-14T03:32:28;5.00;82.70
7876;DHT22;69649;53.712;9.680;2024-02-14T03:34:54;5.00;82.50
7876;DHT22;69649;53.712;9.680;2024-02-14T03:37:20;5.00;82.60
7876;DHT22;69649;53.712;9.680;2024-02-14T03:39:45;5.10;82.40
7876;DHT22;69649;53.712;9.680;2024-02-14T03:42:11;5.10;82.20
7876;DHT22;69649;53.712;9.680;2024-02-14T03:44:37;5.10;82.10
7876;DHT22;69649;53.712;9.680;2024-02-14T03:47:04;5.00;82.10
7876;DHT22;69649;53.712;9.680;2024-02-14T03:49:29;5.10;82.20
7876;DHT22;69649;53.712;9.680;2024-02-14T03:51:56;5.00;82.10
7876;DHT22;69649;53.712;9.680;2024-02-14T03:54:22;5.00;82.30
7876;DHT22;69649;53.712;9.680;2024-02-14T03:56:49;5.10;82.30
7876;DHT22;69649;53.712;9.680;2024-02-14T03:59:15;5.10;82.40
7876;DHT22;69649;53.712;9.680;2024-02-14T04:01:44;5.10;82.30
7876;DHT22;69649;53.712;9.680;2024-02-14T04:04:10;5.20;82.30
7876;DHT22;69649;53.712;9.680;2024-02-14T04:06:36;5.10;82.20
7876;DHT22;69649;53.712;9.680;2024-02-14T04:09:02;5.10;82.20
7876;DHT22;69649;53.712;9.680;2024-02-14T04:11:28;5.10;82.30
7876;DHT22;69649;53.712;9.680;2024-02-14T04:13:53;5.00;82.50
7876;DHT22;69649;53.712;9.680;2024-02-14T04:16:20;5.00;82.70
7876;DHT22;69649;53.712;9.680;2024-02-14T04:18:47;5.00;82.90
7876;DHT22;69649;53.712;9.680;2024-02-14T04:21:12;5.00;83.00
7876;DHT22;69649;53.712;9.680;2024-02-14T04:23:39;4.90;83.20
7876;DHT22;69649;53.712;9.680;2024-02-14T04:26:06;4.90;83.50
7876;DHT22;69649;53.712;9.680;2024-02-14T04:28:32;4.90;83.60
7876;DHT22;69649;53.712;9.680;2024-02-14T04:30:57;4.90;83.70
7876;DHT22;69649;53.712;9.680;2024-02-14T04:33:23;4.90;83.80
7876;DHT22;69649;53.712;9.680;2024-02-14T04:35:49;5.00;83.90
7876;DHT22;69649;53.712;9.680;2024-02-14T04:38:15;5.00;83.90
7876;DHT22;69649;53.712;9.680;2024-02-14T04:40:43;5.10;84.00
7876;DHT22;69649;53.712;9.680;2024-02-14T04:43:09;5.10;83.80
7876;DHT22;69649;53.712;9.680;2024-02-14T04:45:35;5.20;83.70
7876;DHT22;69649;53.712;9.680;2024-02-14T04:48:01;5.20;83.50
7876;DHT22;69649;53.712;9.680;2024-02-14T04:50:28;5.30;83.40
7876;DHT22;69649;53.712;9.680;2024-02-14T04:52:55;5.30;83.40
7876;DHT22;69649;53.712;9.680;2024-02-14T04:55:20;5.30;83.30
7876;DHT22;69649;53.712;9.680;2024-02-14T04:57:46;5.30;83.20
7876;DHT22;69649;53.712;9.680;2024-02-14T05:00:13;5.30;82.90
7876;DHT22;69649;53.712;9.680;2024-02-14T05:02:39;5.30;82.90
7876;DHT22;69649;53.712;9.680;2024-02-14T05:05:05;5.30;82.80
7876;DHT22;69649;53.712;9.680;2024-02-14T05:07:31;5.40;82.70
7876;DHT22;69649;53.712;9.680;2024-02-14T05:09:57;5.40;82.70
7876;DHT22;69649;53.712;9.680;2024-02-14T05:12:23;5.30;82.50
7876;DHT22;69649;53.712;9.680;2024-02-14T05:14:49;5.40;82.60
7876;DHT22;69649;53.712;9.680;2024-02-14T05:17:14;5.30;82.60
7876;DHT22;69649;53.712;9.680;2024-02-14T05:19:42;5.40;82.60
7876;DHT22;69649;53.712;9.680;2024-02-14T05:22:09;5.40;82.60
7876;DHT22;69649;53.712;9.680;2024-02-14T05:24:34;5.30;82.70
7876;DHT22;69649;53.712;9.680;2024-02-14T05:27:02;5.40;82.80
7876;DHT22;69649;53.712;9.680;2024-02-14T05:29:28;5.30;82.80
7876;DHT22;69649;53.712;9.680;2024-02-14T05:31:54;5.30;83.00
7876;DHT22;69649;53.712;9.680;2024-02-14T05:34:21;5.30;83.00
7876;DHT22;69649;53.712;9.680;2024-02-14T05:36:47;5.30;83.20
7876;DHT22;69649;53.712;9.680;2024-02-14T05:39:13;5.30;83.30
7876;DHT22;69649;53.712;9.680;2024-02-14T05:41:40;5.30;83.30
7876;DHT22;69649;53.712;9.680;2024-02-14T05:44:05;5.30;83.20
7876;DHT22;69649;53.712;9.680;2024-02-14T05:46:31;5.40;83.20
7876;DHT22;69649;53.712;9.680;2024-02-14T05:48:57;5.30;83.10
7876;DHT22;69649;53.712;9.680;2024-02-14T05:51:23;5.30;83.20
7876;DHT22;69649;53.712;9.680;2024-02-14T05:53:49;5.30;83.20
7876;DHT22;69649;53.712;9.680;2024-02-14T05:56:15;5.20;83.40
7876;DHT22;69649;53.712;9.680;2024-02-14T05:58:41;5.30;83.70
7876;DHT22;69649;53.712;9.680;2024-02-14T06:01:07;5.30;83.70
7876;DHT22;69649;53.712;9.680;2024-02-14T06:03:32;5.30;83.70
7876;DHT22;69649;53.712;9.680;2024-02-14T06:05:58;5.30;83.70
7876;DHT22;69649;53.712;9.680;2024-02-14T06:08:24;5.10;83.90
7876;DHT22;69649;53.712;9.680;2024-02-14T06:10:50;5.30;84.10
7876;DHT22;69649;53.712;9.680;2024-02-14T06:13:15;6.00;85.00
7876;DHT22;69649;53.712;9.680;2024-02-14T06:15:41;5.80;84.00
7876;DHT22;69649;53.712;9.680;2024-02-14T06:18:07;5.70;83.80
7876;DHT22;69649;53.712;9.680;2024-02-14T06:20:33;5.60;83.40
7876;DHT22;69649;53.712;9.680;2024-02-14T06:22:59;5.50;83.40
7876;DHT22;69649;53.712;9.680;2024-02-14T06:25:24;5.50;83.60
7876;DHT22;69649;53.712;9.680;2024-02-14T06:27:50;5.40;83.70
7876;DHT22;69649;53.712;9.680;2024-02-14T06:30:16;5.50;84.00
7876;DHT22;69649;53.712;9.680;2024-02-14T06:32:42;5.50;84.00
7876;DHT22;69649;53.712;9.680;2024-02-14T06:35:08;5.50;84.10
7876;DHT22;69649;53.712;9.680;2024-02-14T06:37:34;5.50;84.10
7876;DHT22;69649;53.712;9.680;2024-02-14T06:40:00;5.50;84.00
7876;DHT22;69649;53.712;9.680;2024-02-14T06:42:25;5.50;84.20
7876;DHT22;69649;53.712;9.680;2024-02-14T06:44:52;5.50;84.10
7876;DHT22;69649;53.712;9.680;2024-02-14T06:47:17;5.60;84.10
7876;DHT22;69649;53.712;9.680;2024-02-14T06:49:44;5.60;84.10
7876;DHT22;69649;53.712;9.680;2024-02-14T06:52:09;5.50;84.00
7876;DHT22;69649;53.712;9.680;2024-02-14T06:54:35;5.50;84.20
7876;DHT22;69649;53.712;9.680;2024-02-14T06:57:01;5.50;84.30
7876;DHT22;69649;53.712;9.680;2024-02-14T06:59:26;5.50;84.30
7876;DHT22;69649;53.712;9.680;2024-02-14T07:01:52;5.60;84.30
7876;DHT22;69649;53.712;9.680;2024-02-14T07:04:21;5.50;84.40
7876;DHT22;69649;53.712;9.680;2024-02-14T07:06:49;5.50;84.50
7876;DHT22;69649;53.712;9.680;2024-02-14T07:09:14;5.50;84.70
7876;DHT22;69649;53.712;9.680;2024-02-14T07:11:40;5.50;84.70
7876;DHT22;69649;53.712;9.680;2024-02-14T07:14:06;5.50;84.90
7876;DHT22;69649;53.712;9.680;2024-02-14T07:16:32;5.50;85.00
7876;DHT22;69649;53.712;9.680;2024-02-14T07:18:58;5.50;85.00
7876;DHT22;69649;53.712;9.680;2024-02-14T07:21:23;5.50;85.10
7876;DHT22;69649;53.712;9.680;2024-02-14T07:23:49;5.60;85.10
7876;DHT22;69649;53.712;9.680;2024-02-14T07:26:15;5.50;85.10
7876;DHT22;69649;53.712;9.680;2024-02-14T07:28:41;5.60;85.10
7876;DHT22;69649;53.712;9.680;2024-02-14T07:31:07;5.70;85.10
7876;DHT22;69649;53.712;9.680;2024-02-14T07:33:32;5.70;85.10
7876;DHT22;69649;53.712;9.680;2024-02-14T07:35:58;5.70;85.10
7876;DHT22;69649;53.712;9.680;2024-02-14T07:38:24;5.60;85.20
7876;DHT22;69649;53.712;9.680;2024-02-14T07:40:50;5.70;85.20
7876;DHT22;69649;53.712;9.680;2024-02-14T07:43:15;5.80;85.20
7876;DHT22;69649;53.712;9.680;2024-02-14T07:45:41;5.70;85.10
7876;DHT22;69649;53.712;9.680;2024-02-14T07:48:07;5.90;85.20
7876;DHT22;69649;53.712;9.680;2024-02-14T07:50:34;5.80;85.10
7876;DHT22;69649;53.712;9.680;2024-02-14T07:52:59;5.90;85.10
7876;DHT22;69649;53.712;9.680;2024-02-14T07:55:25;5.90;85.10
7876;DHT22;69649;53.712;9.680;2024-02-14T07:57:51;6.00;85.20
7876;DHT22;69649;53.712;9.680;2024-02-14T08:00:18;5.90;85.10
7876;DHT22;69649;53.712;9.680;2024-02-14T08:02:46;6.00;85.10
7876;DHT22;69649;53.712;9.680;2024-02-14T08:05:12;6.00;85.10
7876;DHT22;69649;53.712;9.680;2024-02-14T08:07:38;6.00;85.10
7876;DHT22;69649;53.712;9.680;2024-02-14T08:10:04;6.00;85.10
7876;DHT22;69649;53.712;9.680;2024-02-14T08:12:30;6.00;85.10
7876;DHT22;69649;53.712;9.680;2024-02-14T08:14:56;6.00;85.20
7876;DHT22;69649;53.712;9.680;2024-02-14T08:17:22;6.00;85.40
7876;DHT22;69649;53.712;9.680;2024-02-14T08:19:48;6.00;85.40
7876;DHT22;69649;53.712;9.680;2024-02-14T08:22:13;6.00;85.50
7876;DHT22;69649;53.712;9.680;2024-02-14T08:24:39;6.10;85.50
7876;DHT22;69649;53.712;9.680;2024-02-14T08:27:06;6.10;85.50
7876;DHT22;69649;53.712;9.680;2024-02-14T08:29:32;6.10;85.60
7876;DHT22;69649;53.712;9.680;2024-02-14T08:31:58;6.10;85.80
7876;DHT22;69649;53.712;9.680;2024-02-14T08:34:24;6.10;85.80
7876;DHT22;69649;53.712;9.680;2024-02-14T08:36:50;6.20;85.80
7876;DHT22;69649;53.712;9.680;2024-02-14T08:39:15;6.20;85.90
7876;DHT22;69649;53.712;9.680;2024-02-14T08:41:43;6.20;86.00
7876;DHT22;69649;53.712;9.680;2024-02-14T08:44:10;6.30;86.00
7876;DHT22;69649;53.712;9.680;2024-02-14T08:46:36;6.30;86.10
7876;DHT22;69649;53.712;9.680;2024-02-14T08:49:02;6.40;86.00
7876;DHT22;69649;53.712;9.680;2024-02-14T08:51:28;6.40;86.10
7876;DHT22;69649;53.712;9.680;2024-02-14T08:53:54;6.40;86.10
7876;DHT22;69649;53.712;9.680;2024-02-14T08:56:22;6.40;86.10
7876;DHT22;69649;53.712;9.680;2024-02-14T08:58:48;6.50;86.20
7876;DHT22;69649;53.712;9.680;2024-02-14T09:01:14;6.50;86.30
7876;DHT22;69649;53.712;9.680;2024-02-14T09:03:44;6.50;86.20
7876;DHT22;69649;53.712;9.680;2024-02-14T09:06:15;6.50;86.20
7876;DHT22;69649;53.712;9.680;2024-02-14T09:08:43;6.60;86.30
7876;DHT22;69649;53.712;9.680;2024-02-14T09:11:09;6.60;86.30
7876;DHT22;69649;53.712;9.680;2024-02-14T09:13:35;6.70;86.30
7876;DHT22;69649;53.712;9.680;2024-02-14T09:16:01;6.70;86.30
7876;DHT22;69649;53.712;9.680;2024-02-14T09:18:27;6.70;86.30
7876;DHT22;69649;53.712;9.680;2024-02-14T09:20:53;6.70;86.40
7876;DHT22;69649;53.712;9.680;2024-02-14T09:23:19;6.80;86.30
7876;DHT22;69649;53.712;9.680;2024-02-14T09:25:46;6.80;86.40
7876;DHT22;69649;53.712;9.680;2024-02-14T09:28:19;6.90;86.40
7876;DHT22;69649;53.712;9.680;2024-02-14T09:30:45;7.00;86.40
7876;DHT22;69649;53.712;9.680;2024-02-14T09:33:11;7.00;86.30
7876;DHT22;69649;53.712;9.680;2024-02-14T09:35:38;7.00;86.40
7876;DHT22;69649;53.712;9.680;2024-02-14T09:38:05;7.00;86.30
7876;DHT22;69649;53.712;9.680;2024-02-14T09:40:31;7.00;86.40
7876;DHT22;69649;53.712;9.680;2024-02-14T09:42:59;7.00;86.40
7876;DHT22;69649;53.712;9.680;2024-02-14T09:45:27;7.10;86.40
7876;DHT22;69649;53.712;9.680;2024-02-14T09:47:53;7.10;86.50
7876;DHT22;69649;53.712;9.680;2024-02-14T09:50:20;7.20;86.50
7876;DHT22;69649;53.712;9.680;2024-02-14T09:52:48;7.30;86.50
7876;DHT22;69649;53.712;9.680;2024-02-14T09:55:15;7.40;86.40
7876;DHT22;69649;53.712;9.680;2024-02-14T09:57:43;7.40;86.40
7876;DHT22;69649;53.712;9.680;2024-02-14T10:00:12;7.40;86.40
7876;DHT22;69649;53.712;9.680;2024-02-14T10:02:43;7.40;86.40
7876;DHT22;69649;53.712;9.680;2024-02-14T10:05:09;7.50;86.30
7876;DHT22;69649;53.712;9.680;2024-02-14T10:07:44;7.50;86.40
7876;DHT22;69649;53.712;9.680;2024-02-14T10:10:11;7.50;86.40
7876;DHT22;69649;53.712;9.680;2024-02-14T10:12:37;7.50;86.40
7876;DHT22;69649;53.712;9.680;2024-02-14T10:15:04;7.50;86.40
7876;DHT22;69649;53.712;9.680;2024-02-14T10:17:32;7.60;86.50
7876;DHT22;69649;53.712;9.680;2024-02-14T10:19:59;7.80;86.50
7876;DHT22;69649;53.712;9.680;2024-02-14T10:22:35;7.70;86.50
7876;DHT22;69649;53.712;9.680;2024-02-14T10:25:03;7.80;86.50
7876;DHT22;69649;53.712;9.680;2024-02-14T10:27:32;7.80;86.50
7876;DHT22;69649;53.712;9.680;2024-02-14T10:29:59;8.00;86.50
7876;DHT22;69649;53.712;9.680;2024-02-14T10:32:25;8.00;86.50
7876;DHT22;69649;53.712;9.680;2024-02-14T10:34:51;8.00;86.50
7876;DHT22;69649;53.712;9.680;2024-02-14T10:37:17;8.10;86.50
7876;DHT22;69649;53.712;9.680;2024-02-14T10:39:46;8.20;86.50
7876;DHT22;69649;53.712;9.680;2024-02-14T10:42:13;8.20;86.50
7876;DHT22;69649;53.712;9.680;2024-02-14T10:44:39;8.30;86.50
7876;DHT22;69649;53.712;9.680;2024-02-14T10:47:25;8.40;86.50
7876;DHT22;69649;53.712;9.680;2024-02-14T10:49:53;8.40;86.50
7876;DHT22;69649;53.712;9.680;2024-02-14T10:52:21;8.50;86.50
7876;DHT22;69649;53.712;9.680;2024-02-14T10:54:52;8.50;86.50
7876;DHT22;69649;53.712;9.680;2024-02-14T10:57:17;8.60;86.50
7876;DHT22;69649;53.712;9.680;2024-02-14T10:59:46;8.60;86.60
7876;DHT22;69649;53.712;9.680;2024-02-14T11:02:12;8.60;86.60
7876;DHT22;69649;53.712;9.680;2024-02-14T11:04:39;8.60;86.60
7876;DHT22;69649;53.712;9.680;2024-02-14T11:07:10;8.80;86.60
7876;DHT22;69649;53.712;9.680;2024-02-14T11:09:36;8.80;86.60
7876;DHT22;69649;53.712;9.680;2024-02-14T11:12:03;8.80;86.50
7876;DHT22;69649;53.712;9.680;2024-02-14T11:14:32;8.80;86.50
7876;DHT22;69649;53.712;9.680;2024-02-14T11:17:01;8.80;86.50
7876;DHT22;69649;53.712;9.680;2024-02-14T11:19:33;8.90;86.50
7876;DHT22;69649;53.712;9.680;2024-02-14T11:22:11;8.90;86.60
7876;DHT22;69649;53.712;9.680;2024-02-14T11:24:38;8.90;86.50
7876;DHT22;69649;53.712;9.680;2024-02-14T11:27:09;8.90;86.60
7876;DHT22;69649;53.712;9.680;2024-02-14T11:29:35;9.00;86.50
7876;DHT22;69649;53.712;9.680;2024-02-14T11:32:01;9.00;86.60
7876;DHT22;69649;53.712;9.680;2024-02-14T11:34:28;9.00;86.60
7876;DHT22;69649;53.712;9.680;2024-02-14T11:36:56;9.20;86.70
7876;DHT22;69649;53.712;9.680;2024-02-14T11:39:22;9.20;86.60
7876;DHT22;69649;53.712;9.680;2024-02-14T11:41:47;9.30;86.70
7876;DHT22;69649;53.712;9.680;2024-02-14T11:44:13;9.30;86.70
7876;DHT22;69649;53.712;9.680;2024-02-14T11:46:39;9.40;86.70
7876;DHT22;69649;53.712;9.680;2024-02-14T11:49:07;9.40;86.70
7876;DHT22;69649;53.712;9.680;2024-02-14T11:51:34;9.40;86.80
7876;DHT22;69649;53.712;9.680;2024-02-14T11:54:05;9.40;86.70
7876;DHT22;69649;53.712;9.680;2024-02-14T11:56:33;9.50;86.70
7876;DHT22;69649;53.712;9.680;2024-02-14T11:59:00;9.50;86.80
7876;DHT22;69649;53.712;9.680;2024-02-14T12:01:33;9.50;86.70
7876;DHT22;69649;53.712;9.680;2024-02-14T12:04:07;9.60;86.70
7876;DHT22;69649;53.712;9.680;2024-02-14T12:06:39;9.70;86.70
7876;DHT22;69649;53.712;9.680;2024-02-14T12:09:07;9.70;86.70
7876;DHT22;69649;53.712;9.680;2024-02-14T12:11:36;9.80;86.70
7876;DHT22;69649;53.712;9.680;2024-02-14T12:14:07;9.80;86.60
7876;DHT22;69649;53.712;9.680;2024-02-14T12:16:38;9.80;86.60
7876;DHT22;69649;53.712;9.680;2024-02-14T12:19:08;9.80;86.60
7876;DHT22;69649;53.712;9.680;2024-02-14T12:21:39;9.80;86.50
7876;DHT22;69649;53.712;9.680;2024-02-14T12:24:07;9.90;86.60
7876;DHT22;69649;53.712;9.680;2024-02-14T12:26:34;9.80;86.60
7876;DHT22;69649;53.712;9.680;2024-02-14T12:29:02;9.90;86.60
7876;DHT22;69649;53.712;9.680;2024-02-14T12:31:30;9.90;86.70
7876;DHT22;69649;53.712;9.680;2024-02-14T12:34:00;10.00;86.80
7876;DHT22;69649;53.712;9.680;2024-02-14T12:36:31;10.00;86.70
7876;DHT22;69649;53.712;9.680;2024-02-14T12:39:03;10.00;86.80
7876;DHT22;69649;53.712;9.680;2024-02-14T12:41:31;10.00;86.70
7876;DHT22;69649;53.712;9.680;2024-02-14T12:43:58;10.00;86.80
7876;DHT22;69649;53.712;9.680;2024-02-14T12:46:24;10.10;86.70
7876;DHT22;69649;53.712;9.680;2024-02-14T12:48:49;10.10;86.60
7876;DHT22;69649;53.712;9.680;2024-02-14T12:51:15;10.10;86.60
7876;DHT22;69649;53.712;9.680;2024-02-14T12:53:41;10.10;86.80
7876;DHT22;69649;53.712;9.680;2024-02-14T12:56:08;10.10;86.80
7876;DHT22;69649;53.712;9.680;2024-02-14T12:58:34;10.10;86.80
7876;DHT22;69649;53.712;9.680;2024-02-14T13:01:00;10.20;86.90
7876;DHT22;69649;53.712;9.680;2024-02-14T13:03:27;10.20;86.80
7876;DHT22;69649;53.712;9.680;2024-02-14T13:05:55;10.20;86.80
7876;DHT22;69649;53.712;9.680;2024-02-14T13:08:21;10.30;86.80
7876;DHT22;69649;53.712;9.680;2024-02-14T13:10:49;10.30;86.80
7876;DHT22;69649;53.712;9.680;2024-02-14T13:13:14;10.30;86.80
7876;DHT22;69649;53.712;9.680;2024-02-14T13:15:40;10.40;86.80
7876;DHT22;69649;53.712;9.680;2024-02-14T13:18:08;10.60;86.90
7876;DHT22;69649;53.712;9.680;2024-02-14T13:20:34;10.70;86.70
7876;DHT22;69649;53.712;9.680;2024-02-14T13:22:59;10.70;86.60
7876;DHT22;69649;53.712;9.680;2024-02-14T13:25:25;10.60;86.40
7876;DHT22;69649;53.712;9.680;2024-02-14T13:27:51;10.60;86.20
7876;DHT22;69649;53.712;9.680;2024-02-14T13:30:17;10.50;86.10
7876;DHT22;69649;53.712;9.680;2024-02-14T13:32:44;10.40;86.10
7876;DHT22;69649;53.712;9.680;2024-02-14T13:35:10;10.40;86.10
7876;DHT22;69649;53.712;9.680;2024-02-14T13:37:37;10.40;86.10
7876;DHT22;69649;53.712;9.680;2024-02-14T13:40:04;10.50;86.10
7876;DHT22;69649;53.712;9.680;2024-02-14T13:42:32;10.40;86.10
7876;DHT22;69649;53.712;9.680;2024-02-14T13:44:58;10.40;86.10
7876;DHT22;69649;53.712;9.680;2024-02-14T13:47:23;10.40;86.20
7876;DHT22;69649;53.712;9.680;2024-02-14T13:49:50;10.30;86.30
7876;DHT22;69649;53.712;9.680;2024-02-14T13:52:17;10.30;86.30
7876;DHT22;69649;53.712;9.680;2024-02-14T13:54:43;10.30;86.40
7876;DHT22;69649;53.712;9.680;2024-02-14T13:57:09;10.30;86.40
7876;DHT22;69649;53.712;9.680;2024-02-14T13:59:37;10.30;86.40
7876;DHT22;69649;53.712;9.680;2024-02-14T14:02:03;10.30;86.50
7876;DHT22;69649;53.712;9.680;2024-02-14T14:04:29;10.30;86.40
7876;DHT22;69649;53.712;9.680;2024-02-14T14:06:54;10.40;86.40
7876;DHT22;69649;53.712;9.680;2024-02-14T14:09:20;10.40;86.40
7876;DHT22;69649;53.712;9.680;2024-02-14T14:11:46;10.40;86.30
7876;DHT22;69649;53.712;9.680;2024-02-14T14:14:14;10.40;86.20
7876;DHT22;69649;53.712;9.680;2024-02-14T14:16:41;10.40;86.20
7876;DHT22;69649;53.712;9.680;2024-02-14T14:19:09;10.40;86.20
7876;DHT22;69649;53.712;9.680;2024-02-14T14:21:34;10.40;86.10
7876;DHT22;69649;53.712;9.680;2024-02-14T14:24:00;10.40;86.00
7876;DHT22;69649;53.712;9.680;2024-02-14T14:26:26;10.40;86.10
7876;DHT22;69649;53.712;9.680;2024-02-14T14:28:52;10.40;86.00
7876;DHT22;69649;53.712;9.680;2024-02-14T14:31:19;10.40;86.00
7876;DHT22;69649;53.712;9.680;2024-02-14T14:33:45;10.40;86.00
7876;DHT22;69649;53.712;9.680;2024-02-14T14:36:11;10.40;86.00
7876;DHT22;69649;53.712;9.680;2024-02-14T14:38:37;10.40;86.00
7876;DHT22;69649;53.712;9.680;2024-02-14T14:41:03;10.40;86.00
7876;DHT22;69649;53.712;9.680;2024-02-14T14:43:29;10.30;86.00
7876;DHT22;69649;53.712;9.680;2024-02-14T14:45:55;10.30;86.10
7876;DHT22;69649;53.712;9.680;2024-02-14T14:48:22;10.30;86.20
7876;DHT22;69649;53.712;9.680;2024-02-14T14:50:48;10.40;86.20
7876;DHT22;69649;53.712;9.680;2024-02-14T14:53:14;10.40;86.20
7876;DHT22;69649;53.712;9.680;2024-02-14T14:55:54;10.40;86.30
7876;DHT22;69649;53.712;9.680;2024-02-14T14:58:23;10.40;86.30
7876;DHT22;69649;53.712;9.680;2024-02-14T15:00:54;10.30;86.30
7876;DHT22;69649;53.712;9.680;2024-02-14T15:03:21;10.30;86.40
7876;DHT22;69649;53.712;9.680;2024-02-14T15:05:47;10.40;86.40
7876;DHT22;69649;53.712;9.680;2024-02-14T15:08:14;10.40;86.40
7876;DHT22;69649;53.712;9.680;2024-02-14T15:10:40;10.40;86.40
7876;DHT22;69649;53.712;9.680;2024-02-14T15:13:06;10.40;86.40
7876;DHT22;69649;53.712;9.680;2024-02-14T15:15:35;10.30;86.30
7876;DHT22;69649;53.712;9.680;2024-02-14T15:18:02;10.40;86.40
7876;DHT22;69649;53.712;9.680;2024-02-14T15:20:27;10.40;86.40
7876;DHT22;69649;53.712;9.680;2024-02-14T15:22:55;10.40;86.40
7876;DHT22;69649;53.712;9.680;2024-02-14T15:25:21;10.30;86.30
7876;DHT22;69649;53.712;9.680;2024-02-14T15:27:47;10.40;86.30
7876;DHT22;69649;53.712;9.680;2024-02-14T15:30:15;10.30;86.30
7876;DHT22;69649;53.712;9.680;2024-02-14T15:32:59;10.40;86.30
7876;DHT22;69649;53.712;9.680;2024-02-14T15:35:44;10.30;86.20
7876;DHT22;69649;53.712;9.680;2024-02-14T15:38:09;10.30;86.30
7876;DHT22;69649;53.712;9.680;2024-02-14T15:40:35;10.40;86.20
7876;DHT22;69649;53.712;9.680;2024-02-14T15:43:01;10.40;86.20
7876;DHT22;69649;53.712;9.680;2024-02-14T15:45:28;10.30;86.10
7876;DHT22;69649;53.712;9.680;2024-02-14T15:47:55;10.30;86.20
7876;DHT22;69649;53.712;9.680;2024-02-14T15:50:23;10.30;86.20
7876;DHT22;69649;53.712;9.680;2024-02-14T15:52:50;10.30;86.20
7876;DHT22;69649;53.712;9.680;2024-02-14T15:55:16;10.30;86.30